sensor_id;sensor_type;location;lat;lon;timestamp;P1;durP1;ratioP1;P2;durP2;ratioP2
8232;SDS011;4157;48.074;9.952;2023-09-18T00:00:27;7.80;;;3.88;;
8232;SDS011;4157;48.074;9.952;2023-09-18T00:02:56;8.60;;;3.22;;
8232;SDS011;4157;48.074;9.952;2023-09-18T00:05:25;5.07;;;3.08;;
8232;SDS011;4157;48.074;9.952;2023-09-18T00:07:53;7.38;;;3.47;;
8232;SDS011;4157;48.074;9.952;2023-09-18T00:10:21;5.05;;;3.08;;
8232;SDS011;4157;48.074;9.952;2023-09-18T00:12:50;6.90;;;3.20;;
8232;SDS011;4157;48.074;9.952;2023-09-18T00:15:18;6.15;;;3.28;;
8232;SDS011;4157;48.074;9.952;2023-09-18T00:17:45;5.60;;;3.05;;
8232;SDS011;4157;48.074;9.952;2023-09-18T00:20:13;5.88;;;3.50;;
8232;SDS011;4157;48.074;9.952;2023-09-18T00:22:44;5.72;;;3.20;;
8232;SDS011;4157;48.074;9.952;2023-09-18T00:25:12;4.72;;;3.05;;
8232;SDS011;4157;48.074;9.952;2023-09-18T00:27:41;6.72;;;3.78;;
8232;SDS011;4157;48.074;9.952;2023-09-18T00:30:09;6.85;;;3.45;;
8232;SDS011;4157;48.074;9.952;2023-09-18T00:32:37;8.02;;;3.85;;
8232;SDS011;4157;48.074;9.952;2023-09-18T00:35:05;6.20;;;3.88;;
8232;SDS011;4157;48.074;9.952;2023-09-18T00:37:32;6.32;;;3.38;;
8232;SDS011;4157;48.074;9.952;2023-09-18T00:40:04;5.65;;;3.95;;
8232;SDS011;4157;48.074;9.952;2023-09-18T00:42:31;8.20;;;3.28;;
8232;SDS011;4157;48.074;9.952;2023-09-18T00:44:59;6.88;;;3.40;;
8232;SDS011;4157;48.074;9.952;2023-09-18T00:47:27;5.82;;;3.67;;
8232;SDS011;4157;48.074;9.952;2023-09-18T00:49:55;6.45;;;3.35;;
8232;SDS011;4157;48.074;9.952;2023-09-18T00:52:23;5.45;;;3.20;;
8232;SDS011;4157;48.074;9.952;2023-09-18T00:54:51;6.90;;;3.10;;
8232;SDS011;4157;48.074;9.952;2023-09-18T00:57:20;8.00;;;3.80;;
8232;SDS011;4157;48.074;9.952;2023-09-18T00:59:48;7.28;;;3.83;;
8232;SDS011;4157;48.074;9.952;2023-09-18T01:02:16;8.30;;;3.65;;
8232;SDS011;4157;48.074;9.952;2023-09-18T01:04:46;7.35;;;3.67;;
8232;SDS011;4157;48.074;9.952;2023-09-18T01:07:14;5.80;;;3.60;;
8232;SDS011;4157;48.074;9.952;2023-09-18T01:09:42;8.13;;;3.72;;
8232;SDS011;4157;48.074;9.952;2023-09-18T01:12:11;7.35;;;3.80;;
8232;SDS011;4157;48.074;9.952;2023-09-18T01:14:44;8.10;;;4.20;;
8232;SDS011;4157;48.074;9.952;2023-09-18T01:17:14;6.90;;;3.72;;
8232;SDS011;4157;48.074;9.952;2023-09-18T01:19:43;5.47;;;3.58;;
8232;SDS011;4157;48.074;9.952;2023-09-18T01:22:12;6.38;;;3.58;;
8232;SDS011;4157;48.074;9.952;2023-09-18T01:24:42;5.05;;;3.38;;
8232;SDS011;4157;48.074;9.952;2023-09-18T01:27:10;7.53;;;4.03;;
8232;SDS011;4157;48.074;9.952;2023-09-18T01:29:38;5.85;;;3.42;;
8232;SDS011;4157;48.074;9.952;2023-09-18T01:32:06;7.18;;;4.00;;
8232;SDS011;4157;48.074;9.952;2023-09-18T01:34:34;8.85;;;4.13;;
8232;SDS011;4157;48.074;9.952;2023-09-18T01:37:03;6.57;;;3.97;;
8232;SDS011;4157;48.074;9.952;2023-09-18T01:39:31;6.03;;;3.30;;
8232;SDS011;4157;48.074;9.952;2023-09-18T01:42:02;7.00;;;3.58;;
8232;SDS011;4157;48.074;9.952;2023-09-18T01:44:30;5.82;;;3.20;;
8232;SDS011;4157;48.074;9.952;2023-09-18T01:46:59;9.88;;;3.58;;
8232;SDS011;4157;48.074;9.952;2023-09-18T01:49:29;6.70;;;3.80;;
8232;SDS011;4157;48.074;9.952;2023-09-18T01:51:57;8.18;;;3.63;;
8232;SDS011;4157;48.074;9.952;2023-09-18T01:54:24;6.80;;;3.40;;
8232;SDS011;4157;48.074;9.952;2023-09-18T01:56:52;7.30;;;3.45;;
8232;SDS011;4157;48.074;9.952;2023-09-18T01:59:21;7.03;;;3.30;;
8232;SDS011;4157;48.074;9.952;2023-09-18T02:01:49;7.53;;;3.75;;
8232;SDS011;4157;48.074;9.952;2023-09-18T02:04:17;8.50;;;3.50;;
8232;SDS011;4157;48.074;9.952;2023-09-18T02:06:45;5.88;;;3.50;;
8232;SDS011;4157;48.074;9.952;2023-09-18T02:09:13;7.10;;;3.42;;
8232;SDS011;4157;48.074;9.952;2023-09-18T02:11:41;6.35;;;3.80;;
8232;SDS011;4157;48.074;9.952;2023-09-18T02:14:09;6.15;;;3.60;;
8232;SDS011;4157;48.074;9.952;2023-09-18T02:16:41;6.90;;;3.25;;
8232;SDS011;4157;48.074;9.952;2023-09-18T02:19:09;5.50;;;3.50;;
8232;SDS011;4157;48.074;9.952;2023-09-18T02:21:37;6.63;;;3.88;;
8232;SDS011;4157;48.074;9.952;2023-09-18T02:24:05;7.00;;;3.50;;
8232;SDS011;4157;48.074;9.952;2023-09-18T02:26:34;6.65;;;3.35;;
8232;SDS011;4157;48.074;9.952;2023-09-18T02:29:07;8.13;;;3.60;;
8232;SDS011;4157;48.074;9.952;2023-09-18T02:31:38;8.80;;;4.35;;
8232;SDS011;4157;48.074;9.952;2023-09-18T02:34:06;7.75;;;4.40;;
8232;SDS011;4157;48.074;9.952;2023-09-18T02:36:34;8.43;;;4.10;;
8232;SDS011;4157;48.074;9.952;2023-09-18T02:39:02;8.10;;;3.47;;
8232;SDS011;4157;48.074;9.952;2023-09-18T02:41:30;7.65;;;3.72;;
8232;SDS011;4157;48.074;9.952;2023-09-18T02:43:58;7.22;;;3.90;;
8232;SDS011;4157;48.074;9.952;2023-09-18T02:46:26;7.28;;;3.65;;
8232;SDS011;4157;48.074;9.952;2023-09-18T02:48:56;7.75;;;2.95;;
8232;SDS011;4157;48.074;9.952;2023-09-18T02:51:24;7.00;;;3.90;;
8232;SDS011;4157;48.074;9.952;2023-09-18T02:53:51;8.63;;;4.45;;
8232;SDS011;4157;48.074;9.952;2023-09-18T02:56:19;7.25;;;4.03;;
8232;SDS011;4157;48.074;9.952;2023-09-18T02:58:47;7.38;;;5.20;;
8232;SDS011;4157;48.074;9.952;2023-09-18T03:01:15;14.50;;;8.60;;
8232;SDS011;4157;48.074;9.952;2023-09-18T03:03:42;12.85;;;8.90;;
8232;SDS011;4157;48.074;9.952;2023-09-18T03:06:11;11.00;;;6.97;;
8232;SDS011;4157;48.074;9.952;2023-09-18T03:08:39;9.68;;;5.50;;
8232;SDS011;4157;48.074;9.952;2023-09-18T03:11:10;10.93;;;6.00;;
8232;SDS011;4157;48.074;9.952;2023-09-18T03:13:42;12.98;;;7.28;;
8232;SDS011;4157;48.074;9.952;2023-09-18T03:16:10;12.40;;;5.90;;
8232;SDS011;4157;48.074;9.952;2023-09-18T03:18:38;8.15;;;4.88;;
8232;SDS011;4157;48.074;9.952;2023-09-18T03:21:06;10.13;;;4.50;;
8232;SDS011;4157;48.074;9.952;2023-09-18T03:23:35;9.23;;;4.78;;
8232;SDS011;4157;48.074;9.952;2023-09-18T03:26:02;11.57;;;6.07;;
8232;SDS011;4157;48.074;9.952;2023-09-18T03:28:30;11.68;;;6.28;;
8232;SDS011;4157;48.074;9.952;2023-09-18T03:30:58;12.05;;;7.05;;
8232;SDS011;4157;48.074;9.952;2023-09-18T03:33:26;9.68;;;6.00;;
8232;SDS011;4157;48.074;9.952;2023-09-18T03:35:54;9.23;;;6.07;;
8232;SDS011;4157;48.074;9.952;2023-09-18T03:38:26;9.75;;;5.95;;
8232;SDS011;4157;48.074;9.952;2023-09-18T03:40:58;10.98;;;5.40;;
8232;SDS011;4157;48.074;9.952;2023-09-18T03:43:26;9.98;;;4.80;;
8232;SDS011;4157;48.074;9.952;2023-09-18T03:45:54;12.20;;;4.47;;
8232;SDS011;4157;48.074;9.952;2023-09-18T03:48:22;9.07;;;5.55;;
8232;SDS011;4157;48.074;9.952;2023-09-18T03:50:50;10.60;;;5.35;;
8232;SDS011;4157;48.074;9.952;2023-09-18T03:53:18;7.57;;;4.70;;
8232;SDS011;4157;48.074;9.952;2023-09-18T03:55:47;11.52;;;5.20;;
8232;SDS011;4157;48.074;9.952;2023-09-18T03:58:17;9.75;;;4.82;;
8232;SDS011;4157;48.074;9.952;2023-09-18T04:00:45;10.02;;;5.03;;
8232;SDS011;4157;48.074;9.952;2023-09-18T04:03:15;8.93;;;4.63;;
8232;SDS011;4157;48.074;9.952;2023-09-18T04:05:42;8.55;;;4.07;;
8232;SDS011;4157;48.074;9.952;2023-09-18T04:08:10;7.82;;;4.00;;
8232;SDS011;4157;48.074;9.952;2023-09-18T04:10:39;8.45;;;4.10;;
8232;SDS011;4157;48.074;9.952;2023-09-18T04:13:06;8.40;;;3.63;;
8232;SDS011;4157;48.074;9.952;2023-09-18T04:15:37;8.85;;;3.80;;
8232;SDS011;4157;48.074;9.952;2023-09-18T04:18:04;9.40;;;4.40;;
8232;SDS011;4157;48.074;9.952;2023-09-18T04:20:32;9.00;;;3.75;;
8232;SDS011;4157;48.074;9.952;2023-09-18T04:23:17;6.50;;;3.58;;
8232;SDS011;4157;48.074;9.952;2023-09-18T04:25:45;9.02;;;4.20;;
8232;SDS011;4157;48.074;9.952;2023-09-18T04:28:13;11.65;;;4.25;;
8232;SDS011;4157;48.074;9.952;2023-09-18T04:30:42;6.50;;;4.00;;
8232;SDS011;4157;48.074;9.952;2023-09-18T04:33:10;8.90;;;3.80;;
8232;SDS011;4157;48.074;9.952;2023-09-18T04:35:38;8.30;;;3.90;;
8232;SDS011;4157;48.074;9.952;2023-09-18T04:38:07;10.27;;;4.70;;
8232;SDS011;4157;48.074;9.952;2023-09-18T04:40:36;8.15;;;3.90;;
8232;SDS011;4157;48.074;9.952;2023-09-18T04:43:04;10.80;;;4.50;;
8232;SDS011;4157;48.074;9.952;2023-09-18T04:45:32;11.93;;;5.22;;
8232;SDS011;4157;48.074;9.952;2023-09-18T04:48:01;11.80;;;6.38;;
8232;SDS011;4157;48.074;9.952;2023-09-18T04:50:31;12.57;;;6.15;;
8232;SDS011;4157;48.074;9.952;2023-09-18T04:52:59;12.80;;;6.32;;
8232;SDS011;4157;48.074;9.952;2023-09-18T04:55:29;9.43;;;5.35;;
8232;SDS011;4157;48.074;9.952;2023-09-18T04:57:57;13.65;;;5.90;;
8232;SDS011;4157;48.074;9.952;2023-09-18T05:00:26;13.25;;;6.95;;
8232;SDS011;4157;48.074;9.952;2023-09-18T05:02:55;12.23;;;6.10;;
8232;SDS011;4157;48.074;9.952;2023-09-18T05:05:25;14.07;;;6.40;;
8232;SDS011;4157;48.074;9.952;2023-09-18T05:07:53;14.10;;;5.85;;
8232;SDS011;4157;48.074;9.952;2023-09-18T05:10:20;16.55;;;6.22;;
8232;SDS011;4157;48.074;9.952;2023-09-18T05:12:48;12.90;;;5.85;;
8232;SDS011;4157;48.074;9.952;2023-09-18T05:15:16;13.00;;;5.88;;
8232;SDS011;4157;48.074;9.952;2023-09-18T05:17:44;11.80;;;5.95;;
8232;SDS011;4157;48.074;9.952;2023-09-18T05:20:12;11.13;;;5.55;;
8232;SDS011;4157;48.074;9.952;2023-09-18T05:22:42;14.30;;;5.57;;
8232;SDS011;4157;48.074;9.952;2023-09-18T05:25:10;13.88;;;5.30;;
8232;SDS011;4157;48.074;9.952;2023-09-18T05:27:40;12.35;;;5.35;;
8232;SDS011;4157;48.074;9.952;2023-09-18T05:30:11;12.82;;;5.75;;
8232;SDS011;4157;48.074;9.952;2023-09-18T05:32:41;15.82;;;8.73;;
8232;SDS011;4157;48.074;9.952;2023-09-18T05:35:08;16.20;;;8.70;;
8232;SDS011;4157;48.074;9.952;2023-09-18T05:37:38;14.40;;;7.55;;
8232;SDS011;4157;48.074;9.952;2023-09-18T05:40:08;13.82;;;6.28;;
8232;SDS011;4157;48.074;9.952;2023-09-18T05:42:36;11.75;;;5.30;;
8232;SDS011;4157;48.074;9.952;2023-09-18T05:45:04;11.15;;;5.47;;
8232;SDS011;4157;48.074;9.952;2023-09-18T05:47:32;11.88;;;4.97;;
8232;SDS011;4157;48.074;9.952;2023-09-18T05:50:01;12.07;;;5.43;;
8232;SDS011;4157;48.074;9.952;2023-09-18T05:52:31;12.27;;;4.93;;
8232;SDS011;4157;48.074;9.952;2023-09-18T05:54:59;10.95;;;4.90;;
8232;SDS011;4157;48.074;9.952;2023-09-18T05:57:28;11.10;;;4.75;;
8232;SDS011;4157;48.074;9.952;2023-09-18T05:59:55;9.90;;;4.43;;
8232;SDS011;4157;48.074;9.952;2023-09-18T06:02:23;11.18;;;4.78;;
8232;SDS011;4157;48.074;9.952;2023-09-18T06:04:54;12.35;;;4.93;;
8232;SDS011;4157;48.074;9.952;2023-09-18T06:07:23;11.07;;;4.40;;
8232;SDS011;4157;48.074;9.952;2023-09-18T06:09:51;11.05;;;4.18;;
8232;SDS011;4157;48.074;9.952;2023-09-18T06:12:19;11.32;;;4.22;;
8232;SDS011;4157;48.074;9.952;2023-09-18T06:14:49;10.13;;;3.72;;
8232;SDS011;4157;48.074;9.952;2023-09-18T06:17:16;8.98;;;3.58;;
8232;SDS011;4157;48.074;9.952;2023-09-18T06:19:45;10.38;;;3.85;;
8232;SDS011;4157;48.074;9.952;2023-09-18T06:22:12;10.02;;;3.97;;
8232;SDS011;4157;48.074;9.952;2023-09-18T06:24:40;15.55;;;4.32;;
8232;SDS011;4157;48.074;9.952;2023-09-18T06:27:08;9.45;;;3.72;;
8232;SDS011;4157;48.074;9.952;2023-09-18T06:29:36;10.68;;;4.50;;
8232;SDS011;4157;48.074;9.952;2023-09-18T06:32:06;9.27;;;4.10;;
8232;SDS011;4157;48.074;9.952;2023-09-18T06:34:34;10.85;;;4.68;;
8232;SDS011;4157;48.074;9.952;2023-09-18T06:37:01;13.57;;;4.47;;
8232;SDS011;4157;48.074;9.952;2023-09-18T06:39:31;8.85;;;3.92;;
8232;SDS011;4157;48.074;9.952;2023-09-18T06:41:59;10.60;;;4.18;;
8232;SDS011;4157;48.074;9.952;2023-09-18T06:44:27;8.05;;;3.85;;
8232;SDS011;4157;48.074;9.952;2023-09-18T06:46:54;10.13;;;4.00;;
8232;SDS011;4157;48.074;9.952;2023-09-18T06:49:24;12.10;;;4.32;;
8232;SDS011;4157;48.074;9.952;2023-09-18T06:51:52;12.20;;;4.15;;
8232;SDS011;4157;48.074;9.952;2023-09-18T06:54:19;13.85;;;4.15;;
8232;SDS011;4157;48.074;9.952;2023-09-18T06:56:47;14.10;;;4.43;;
8232;SDS011;4157;48.074;9.952;2023-09-18T06:59:15;11.52;;;4.10;;
8232;SDS011;4157;48.074;9.952;2023-09-18T07:01:43;10.85;;;4.18;;
8232;SDS011;4157;48.074;9.952;2023-09-18T07:04:11;10.13;;;3.97;;
8232;SDS011;4157;48.074;9.952;2023-09-18T07:06:40;9.35;;;4.03;;
8232;SDS011;4157;48.074;9.952;2023-09-18T07:09:07;8.55;;;4.03;;
8232;SDS011;4157;48.074;9.952;2023-09-18T07:11:37;10.52;;;3.90;;
8232;SDS011;4157;48.074;9.952;2023-09-18T07:14:05;10.43;;;4.00;;
8232;SDS011;4157;48.074;9.952;2023-09-18T07:16:33;11.63;;;3.65;;
8232;SDS011;4157;48.074;9.952;2023-09-18T07:19:01;10.52;;;4.70;;
8232;SDS011;4157;48.074;9.952;2023-09-18T07:21:30;10.55;;;4.07;;
8232;SDS011;4157;48.074;9.952;2023-09-18T07:24:00;13.15;;;4.50;;
8232;SDS011;4157;48.074;9.952;2023-09-18T07:26:28;11.15;;;3.67;;
8232;SDS011;4157;48.074;9.952;2023-09-18T07:28:55;11.35;;;3.80;;
8232;SDS011;4157;48.074;9.952;2023-09-18T07:31:23;11.43;;;3.88;;
8232;SDS011;4157;48.074;9.952;2023-09-18T07:33:51;10.75;;;4.05;;
8232;SDS011;4157;48.074;9.952;2023-09-18T07:36:18;12.43;;;4.45;;
8232;SDS011;4157;48.074;9.952;2023-09-18T07:38:46;16.00;;;5.38;;
8232;SDS011;4157;48.074;9.952;2023-09-18T07:41:16;17.30;;;4.45;;
8232;SDS011;4157;48.074;9.952;2023-09-18T07:43:45;15.23;;;4.40;;
8232;SDS011;4157;48.074;9.952;2023-09-18T07:46:12;15.13;;;4.68;;
8232;SDS011;4157;48.074;9.952;2023-09-18T07:48:40;11.93;;;4.05;;
8232;SDS011;4157;48.074;9.952;2023-09-18T07:51:10;15.13;;;4.13;;
8232;SDS011;4157;48.074;9.952;2023-09-18T07:53:38;11.88;;;3.78;;
8232;SDS011;4157;48.074;9.952;2023-09-18T07:56:06;10.60;;;3.90;;
8232;SDS011;4157;48.074;9.952;2023-09-18T07:58:35;10.63;;;3.63;;
8232;SDS011;4157;48.074;9.952;2023-09-18T08:01:04;10.90;;;3.80;;
8232;SDS011;4157;48.074;9.952;2023-09-18T08:03:32;14.65;;;3.95;;
8232;SDS011;4157;48.074;9.952;2023-09-18T08:06:00;15.63;;;4.03;;
8232;SDS011;4157;48.074;9.952;2023-09-18T08:08:30;11.77;;;3.80;;
8232;SDS011;4157;48.074;9.952;2023-09-18T08:11:00;13.20;;;3.65;;
8232;SDS011;4157;48.074;9.952;2023-09-18T08:13:28;13.43;;;3.83;;
8232;SDS011;4157;48.074;9.952;2023-09-18T08:15:57;11.20;;;4.03;;
8232;SDS011;4157;48.074;9.952;2023-09-18T08:18:25;14.88;;;3.97;;
8232;SDS011;4157;48.074;9.952;2023-09-18T08:20:53;15.80;;;4.47;;
8232;SDS011;4157;48.074;9.952;2023-09-18T08:23:23;15.80;;;4.20;;
8232;SDS011;4157;48.074;9.952;2023-09-18T08:25:50;9.32;;;3.67;;
8232;SDS011;4157;48.074;9.952;2023-09-18T08:28:21;11.07;;;3.40;;
8232;SDS011;4157;48.074;9.952;2023-09-18T08:30:49;11.70;;;3.38;;
8232;SDS011;4157;48.074;9.952;2023-09-18T08:33:18;9.73;;;3.40;;
8232;SDS011;4157;48.074;9.952;2023-09-18T08:35:46;11.85;;;3.20;;
8232;SDS011;4157;48.074;9.952;2023-09-18T08:38:15;10.48;;;3.40;;
8232;SDS011;4157;48.074;9.952;2023-09-18T08:40:43;10.98;;;3.20;;
8232;SDS011;4157;48.074;9.952;2023-09-18T08:43:10;10.77;;;3.72;;
8232;SDS011;4157;48.074;9.952;2023-09-18T08:45:40;7.82;;;3.00;;
8232;SDS011;4157;48.074;9.952;2023-09-18T08:48:10;9.90;;;3.22;;
8232;SDS011;4157;48.074;9.952;2023-09-18T08:50:40;10.20;;;3.10;;
8232;SDS011;4157;48.074;9.952;2023-09-18T08:53:08;10.88;;;3.17;;
8232;SDS011;4157;48.074;9.952;2023-09-18T08:55:35;9.63;;;2.83;;
8232;SDS011;4157;48.074;9.952;2023-09-18T08:58:03;8.38;;;2.80;;
8232;SDS011;4157;48.074;9.952;2023-09-18T09:00:31;10.13;;;2.80;;
8232;SDS011;4157;48.074;9.952;2023-09-18T09:02:58;10.98;;;2.90;;
8232;SDS011;4157;48.074;9.952;2023-09-18T09:05:26;11.48;;;3.20;;
8232;SDS011;4157;48.074;9.952;2023-09-18T09:07:55;11.80;;;3.03;;
8232;SDS011;4157;48.074;9.952;2023-09-18T09:10:23;9.40;;;2.75;;
8232;SDS011;4157;48.074;9.952;2023-09-18T09:12:52;8.00;;;2.42;;
8232;SDS011;4157;48.074;9.952;2023-09-18T09:15:23;9.75;;;2.40;;
8232;SDS011;4157;48.074;9.952;2023-09-18T09:17:51;7.65;;;2.60;;
8232;SDS011;4157;48.074;9.952;2023-09-18T09:20:20;8.90;;;2.67;;
8232;SDS011;4157;48.074;9.952;2023-09-18T09:22:48;9.43;;;2.45;;
8232;SDS011;4157;48.074;9.952;2023-09-18T09:25:24;7.15;;;2.28;;
8232;SDS011;4157;48.074;9.952;2023-09-18T09:27:52;10.82;;;2.75;;
8232;SDS011;4157;48.074;9.952;2023-09-18T09:30:21;7.28;;;2.05;;
8232;SDS011;4157;48.074;9.952;2023-09-18T09:32:49;9.20;;;2.72;;
8232;SDS011;4157;48.074;9.952;2023-09-18T09:35:23;5.80;;;2.25;;
8232;SDS011;4157;48.074;9.952;2023-09-18T09:37:53;7.80;;;3.10;;
8232;SDS011;4157;48.074;9.952;2023-09-18T09:40:23;8.48;;;2.28;;
8232;SDS011;4157;48.074;9.952;2023-09-18T09:42:52;9.82;;;2.65;;
8232;SDS011;4157;48.074;9.952;2023-09-18T09:45:26;9.93;;;2.65;;
8232;SDS011;4157;48.074;9.952;2023-09-18T09:47:55;12.95;;;2.60;;
8232;SDS011;4157;48.074;9.952;2023-09-18T09:50:23;7.25;;;2.33;;
8232;SDS011;4157;48.074;9.952;2023-09-18T09:52:52;10.75;;;2.45;;
8232;SDS011;4157;48.074;9.952;2023-09-18T09:55:21;7.18;;;2.40;;
8232;SDS011;4157;48.074;9.952;2023-09-18T09:57:51;10.38;;;2.10;;
8232;SDS011;4157;48.074;9.952;2023-09-18T10:00:20;6.80;;;2.22;;
8232;SDS011;4157;48.074;9.952;2023-09-18T10:02:56;7.55;;;2.42;;
8232;SDS011;4157;48.074;9.952;2023-09-18T10:05:26;6.75;;;2.60;;
8232;SDS011;4157;48.074;9.952;2023-09-18T10:07:57;8.43;;;2.30;;
8232;SDS011;4157;48.074;9.952;2023-09-18T10:10:27;13.68;;;3.20;;
8232;SDS011;4157;48.074;9.952;2023-09-18T10:12:58;8.77;;;2.80;;
8232;SDS011;4157;48.074;9.952;2023-09-18T10:15:28;9.95;;;2.30;;
8232;SDS011;4157;48.074;9.952;2023-09-18T10:17:58;7.90;;;2.10;;
8232;SDS011;4157;48.074;9.952;2023-09-18T10:20:27;6.53;;;2.00;;
8232;SDS011;4157;48.074;9.952;2023-09-18T10:22:56;6.43;;;2.42;;
8232;SDS011;4157;48.074;9.952;2023-09-18T10:25:28;4.60;;;1.75;;
8232;SDS011;4157;48.074;9.952;2023-09-18T10:27:58;5.05;;;1.92;;
8232;SDS011;4157;48.074;9.952;2023-09-18T10:30:29;6.68;;;2.20;;
8232;SDS011;4157;48.074;9.952;2023-09-18T10:32:57;7.72;;;2.30;;
8232;SDS011;4157;48.074;9.952;2023-09-18T10:35:26;5.10;;;1.60;;
8232;SDS011;4157;48.074;9.952;2023-09-18T10:37:54;6.95;;;2.22;;
8232;SDS011;4157;48.074;9.952;2023-09-18T10:40:23;6.53;;;2.28;;
8232;SDS011;4157;48.074;9.952;2023-09-18T10:42:52;6.05;;;1.85;;
8232;SDS011;4157;48.074;9.952;2023-09-18T10:45:23;6.32;;;2.60;;
8232;SDS011;4157;48.074;9.952;2023-09-18T10:47:51;9.38;;;2.83;;
8232;SDS011;4157;48.074;9.952;2023-09-18T10:50:23;8.02;;;3.50;;
8232;SDS011;4157;48.074;9.952;2023-09-18T10:52:51;9.00;;;2.10;;
8232;SDS011;4157;48.074;9.952;2023-09-18T10:55:19;8.77;;;3.70;;
8232;SDS011;4157;48.074;9.952;2023-09-18T10:57:50;6.05;;;3.30;;
8232;SDS011;4157;48.074;9.952;2023-09-18T11:00:18;6.68;;;1.98;;
8232;SDS011;4157;48.074;9.952;2023-09-18T11:02:50;6.13;;;3.10;;
8232;SDS011;4157;48.074;9.952;2023-09-18T11:05:30;4.30;;;1.30;;
8232;SDS011;4157;48.074;9.952;2023-09-18T11:10:54;3.47;;;1.08;;
8232;SDS011;4157;48.074;9.952;2023-09-18T11:13:27;5.32;;;1.63;;
8232;SDS011;4157;48.074;9.952;2023-09-18T11:15:58;3.40;;;1.15;;
8232;SDS011;4157;48.074;9.952;2023-09-18T11:18:33;4.72;;;1.40;;
8232;SDS011;4157;48.074;9.952;2023-09-18T11:21:08;4.80;;;1.33;;
8232;SDS011;4157;48.074;9.952;2023-09-18T11:23:37;2.08;;;1.00;;
8232;SDS011;4157;48.074;9.952;2023-09-18T11:26:08;3.83;;;1.25;;
8232;SDS011;4157;48.074;9.952;2023-09-18T11:28:37;3.40;;;0.90;;
8232;SDS011;4157;48.074;9.952;2023-09-18T11:31:05;4.47;;;1.45;;
8232;SDS011;4157;48.074;9.952;2023-09-18T11:33:35;2.70;;;1.10;;
8232;SDS011;4157;48.074;9.952;2023-09-18T11:36:04;3.90;;;1.10;;
8232;SDS011;4157;48.074;9.952;2023-09-18T11:38:50;3.05;;;1.30;;
8232;SDS011;4157;48.074;9.952;2023-09-18T11:41:22;5.38;;;1.73;;
8232;SDS011;4157;48.074;9.952;2023-09-18T11:43:51;3.38;;;1.23;;
8232;SDS011;4157;48.074;9.952;2023-09-18T11:46:20;4.90;;;1.15;;
8232;SDS011;4157;48.074;9.952;2023-09-18T11:48:49;3.05;;;1.20;;
8232;SDS011;4157;48.074;9.952;2023-09-18T11:51:20;3.15;;;1.33;;
8232;SDS011;4157;48.074;9.952;2023-09-18T11:53:49;3.85;;;1.27;;
8232;SDS011;4157;48.074;9.952;2023-09-18T11:56:19;2.88;;;1.30;;
8232;SDS011;4157;48.074;9.952;2023-09-18T11:58:47;4.82;;;2.10;;
8232;SDS011;4157;48.074;9.952;2023-09-18T12:01:15;2.58;;;1.02;;
8232;SDS011;4157;48.074;9.952;2023-09-18T12:03:43;5.70;;;2.78;;
8232;SDS011;4157;48.074;9.952;2023-09-18T12:06:13;6.05;;;2.15;;
8232;SDS011;4157;48.074;9.952;2023-09-18T12:08:41;6.43;;;1.70;;
8232;SDS011;4157;48.074;9.952;2023-09-18T12:11:09;5.30;;;2.50;;
8232;SDS011;4157;48.074;9.952;2023-09-18T12:13:42;4.00;;;1.63;;
8232;SDS011;4157;48.074;9.952;2023-09-18T12:16:10;7.45;;;3.53;;
8232;SDS011;4157;48.074;9.952;2023-09-18T12:18:44;2.58;;;1.33;;
8232;SDS011;4157;48.074;9.952;2023-09-18T12:21:15;6.32;;;1.90;;
8232;SDS011;4157;48.074;9.952;2023-09-18T12:23:44;4.57;;;2.50;;
8232;SDS011;4157;48.074;9.952;2023-09-18T12:26:12;4.57;;;2.05;;
8232;SDS011;4157;48.074;9.952;2023-09-18T12:28:40;4.80;;;1.30;;
8232;SDS011;4157;48.074;9.952;2023-09-18T12:31:10;5.63;;;2.00;;
8232;SDS011;4157;48.074;9.952;2023-09-18T12:33:38;5.03;;;1.95;;
8232;SDS011;4157;48.074;9.952;2023-09-18T12:36:06;4.53;;;2.00;;
8232;SDS011;4157;48.074;9.952;2023-09-18T12:38:36;4.35;;;1.90;;
8232;SDS011;4157;48.074;9.952;2023-09-18T12:41:04;3.45;;;1.40;;
8232;SDS011;4157;48.074;9.952;2023-09-18T12:43:33;5.50;;;1.80;;
8232;SDS011;4157;48.074;9.952;2023-09-18T12:46:01;4.57;;;1.45;;
8232;SDS011;4157;48.074;9.952;2023-09-18T12:48:30;3.92;;;1.35;;
8232;SDS011;4157;48.074;9.952;2023-09-18T12:51:02;3.53;;;1.38;;
8232;SDS011;4157;48.074;9.952;2023-09-18T12:53:30;4.30;;;1.10;;
8232;SDS011;4157;48.074;9.952;2023-09-18T12:56:05;3.08;;;1.30;;
8232;SDS011;4157;48.074;9.952;2023-09-18T12:58:33;3.30;;;1.25;;
8232;SDS011;4157;48.074;9.952;2023-09-18T13:01:03;4.78;;;1.70;;
8232;SDS011;4157;48.074;9.952;2023-09-18T13:06:09;5.07;;;1.48;;
8232;SDS011;4157;48.074;9.952;2023-09-18T13:08:38;5.85;;;2.00;;
8232;SDS011;4157;48.074;9.952;2023-09-18T13:11:07;4.88;;;1.77;;
8232;SDS011;4157;48.074;9.952;2023-09-18T13:13:36;6.57;;;1.65;;
8232;SDS011;4157;48.074;9.952;2023-09-18T13:16:04;3.85;;;1.40;;
8232;SDS011;4157;48.074;9.952;2023-09-18T13:18:32;5.03;;;2.10;;
8232;SDS011;4157;48.074;9.952;2023-09-18T13:21:00;5.22;;;1.90;;
8232;SDS011;4157;48.074;9.952;2023-09-18T13:23:36;3.88;;;1.77;;
8232;SDS011;4157;48.074;9.952;2023-09-18T13:26:04;4.93;;;1.42;;
8232;SDS011;4157;48.074;9.952;2023-09-18T13:28:34;4.20;;;1.45;;
8232;SDS011;4157;48.074;9.952;2023-09-18T13:31:03;3.33;;;1.45;;
8232;SDS011;4157;48.074;9.952;2023-09-18T13:33:32;3.40;;;1.67;;
8232;SDS011;4157;48.074;9.952;2023-09-18T13:36:00;5.18;;;1.40;;
8232;SDS011;4157;48.074;9.952;2023-09-18T13:38:28;3.08;;;1.40;;
8232;SDS011;4157;48.074;9.952;2023-09-18T13:40:56;4.20;;;1.27;;
8232;SDS011;4157;48.074;9.952;2023-09-18T13:43:23;4.38;;;1.35;;
8232;SDS011;4157;48.074;9.952;2023-09-18T13:45:54;4.63;;;1.95;;
8232;SDS011;4157;48.074;9.952;2023-09-18T13:48:24;4.38;;;1.58;;
8232;SDS011;4157;48.074;9.952;2023-09-18T13:50:52;3.38;;;1.33;;
8232;SDS011;4157;48.074;9.952;2023-09-18T13:53:19;3.17;;;1.17;;
8232;SDS011;4157;48.074;9.952;2023-09-18T13:55:48;4.63;;;1.25;;
8232;SDS011;4157;48.074;9.952;2023-09-18T13:58:15;3.28;;;1.10;;
8232;SDS011;4157;48.074;9.952;2023-09-18T14:00:43;3.47;;;1.30;;
8232;SDS011;4157;48.074;9.952;2023-09-18T14:03:13;3.70;;;1.27;;
8232;SDS011;4157;48.074;9.952;2023-09-18T14:05:42;2.80;;;0.95;;
8232;SDS011;4157;48.074;9.952;2023-09-18T14:08:11;4.25;;;1.50;;
8232;SDS011;4157;48.074;9.952;2023-09-18T14:10:38;2.80;;;1.40;;
8232;SDS011;4157;48.074;9.952;2023-09-18T14:13:08;2.75;;;1.38;;
8232;SDS011;4157;48.074;9.952;2023-09-18T14:15:36;2.58;;;1.30;;
8232;SDS011;4157;48.074;9.952;2023-09-18T14:18:04;2.50;;;0.95;;
8232;SDS011;4157;48.074;9.952;2023-09-18T14:20:33;3.83;;;0.95;;
8232;SDS011;4157;48.074;9.952;2023-09-18T14:23:01;3.28;;;1.00;;
8232;SDS011;4157;48.074;9.952;2023-09-18T14:25:29;2.53;;;1.00;;
8232;SDS011;4157;48.074;9.952;2023-09-18T14:27:56;2.92;;;0.98;;
8232;SDS011;4157;48.074;9.952;2023-09-18T14:30:24;4.45;;;1.08;;
8232;SDS011;4157;48.074;9.952;2023-09-18T14:32:58;2.20;;;0.90;;
8232;SDS011;4157;48.074;9.952;2023-09-18T14:35:26;1.33;;;0.80;;
8232;SDS011;4157;48.074;9.952;2023-09-18T14:37:55;3.20;;;0.88;;
8232;SDS011;4157;48.074;9.952;2023-09-18T14:40:23;1.60;;;0.82;;
8232;SDS011;4157;48.074;9.952;2023-09-18T14:42:51;5.05;;;2.47;;
8232;SDS011;4157;48.074;9.952;2023-09-18T14:45:20;5.10;;;1.05;;
8232;SDS011;4157;48.074;9.952;2023-09-18T14:47:47;2.70;;;0.90;;
8232;SDS011;4157;48.074;9.952;2023-09-18T14:50:15;2.97;;;0.95;;
8232;SDS011;4157;48.074;9.952;2023-09-18T14:52:43;3.45;;;1.00;;
8232;SDS011;4157;48.074;9.952;2023-09-18T14:55:12;3.38;;;1.05;;
8232;SDS011;4157;48.074;9.952;2023-09-18T14:57:40;3.72;;;1.10;;
8232;SDS011;4157;48.074;9.952;2023-09-18T15:00:08;2.05;;;0.80;;
8232;SDS011;4157;48.074;9.952;2023-09-18T15:02:38;2.67;;;0.90;;
8232;SDS011;4157;48.074;9.952;2023-09-18T15:05:06;3.20;;;0.80;;
8232;SDS011;4157;48.074;9.952;2023-09-18T15:07:38;2.58;;;0.90;;
8232;SDS011;4157;48.074;9.952;2023-09-18T15:10:05;1.90;;;0.73;;
8232;SDS011;4157;48.074;9.952;2023-09-18T15:12:37;3.55;;;1.15;;
8232;SDS011;4157;48.074;9.952;2023-09-18T15:15:06;1.98;;;0.85;;
8232;SDS011;4157;48.074;9.952;2023-09-18T15:17:34;2.53;;;0.90;;
8232;SDS011;4157;48.074;9.952;2023-09-18T15:20:02;1.90;;;0.88;;
8232;SDS011;4157;48.074;9.952;2023-09-18T15:22:31;2.45;;;0.90;;
8232;SDS011;4157;48.074;9.952;2023-09-18T15:24:59;2.67;;;0.90;;